createdAt,value
2018-02-27T00:00:52.278Z,23.73
2018-02-27T00:03:20.235Z,26.52
2018-02-27T00:05:48.160Z,26.05
2018-02-27T00:08:16.774Z,23.73
2018-02-27T00:10:45.827Z,24.85
2018-02-27T00:13:13.765Z,25.65
2018-02-27T00:15:42.573Z,23.20
2018-02-27T00:18:11.282Z,24.92
2018-02-27T00:20:39.807Z,25.20
2018-02-27T00:23:07.887Z,24.15
2018-02-27T00:25:35.745Z,23.05
2018-02-27T00:28:04.047Z,23.85
2018-02-27T00:30:32.037Z,23.70
2018-02-27T00:33:00.168Z,22.83
2018-02-27T00:35:27.860Z,24.00
2018-02-27T00:37:56.528Z,21.75
2018-02-27T00:40:24.377Z,23.70
2018-02-27T00:42:52.232Z,22.83
2018-02-27T00:45:20.357Z,20.27
2018-02-27T00:47:48.222Z,25.20
2018-02-27T00:50:16.657Z,24.77
2018-02-27T00:52:44.568Z,24.85
2018-02-27T00:55:12.436Z,22.33
2018-02-27T00:57:40.288Z,23.27
2018-02-27T01:00:08.276Z,23.60
2018-02-27T01:02:36.353Z,24.25
2018-02-27T01:05:04.192Z,24.25
2018-02-27T01:07:32.221Z,23.23
2018-02-27T01:10:00.943Z,21.77
2018-02-27T01:12:29.133Z,25.33
2018-02-27T01:14:57.222Z,22.45
2018-02-27T01:17:27.250Z,23.58
2018-02-27T01:19:56.316Z,25.90
2018-02-27T01:22:25.440Z,22.33
2018-02-27T01:24:53.570Z,23.80
2018-02-27T01:27:22.116Z,23.35
2018-02-27T01:29:50.959Z,23.40
2018-02-27T01:32:19.800Z,23.65
2018-02-27T01:34:48.075Z,22.83
2018-02-27T01:37:16.306Z,23.02
2018-02-27T01:39:44.266Z,22.55
2018-02-27T01:42:12.150Z,24.40
2018-02-27T01:44:40.827Z,24.65
2018-02-27T01:47:08.931Z,25.00
2018-02-27T01:49:37.996Z,24.52
2018-02-27T01:52:06.528Z,25.25
2018-02-27T01:54:35.300Z,25.17
2018-02-27T01:57:03.334Z,23.45
2018-02-27T01:59:32.492Z,19.52
2018-02-27T02:02:00.418Z,23.23
2018-02-27T02:04:28.312Z,25.65
2018-02-27T02:06:56.406Z,22.75
2018-02-27T02:09:24.528Z,24.98
2018-02-27T02:11:52.599Z,24.75
2018-02-27T02:14:21.671Z,23.75
2018-02-27T02:16:49.569Z,24.37
2018-02-27T02:19:17.532Z,24.25
2018-02-27T02:21:48.932Z,22.90
2018-02-27T02:24:18.467Z,24.20
2018-02-27T02:26:49.830Z,24.90
2018-02-27T02:29:19.551Z,23.23
2018-02-27T02:31:47.509Z,23.05
2018-02-27T02:34:15.649Z,24.42
2018-02-27T02:36:43.781Z,24.75
2018-02-27T02:39:11.748Z,24.42
2018-02-27T02:41:41.251Z,25.58
2018-02-27T02:44:10.053Z,23.83
2018-02-27T02:46:38.054Z,23.60
2018-02-27T02:49:06.296Z,25.00
2018-02-27T02:51:36.342Z,24.05
2018-02-27T02:54:07.207Z,23.90
2018-02-27T02:56:38.031Z,25.17
2018-02-27T02:59:07.903Z,26.62
2018-02-27T03:01:39.515Z,23.67
2018-02-27T03:04:09.808Z,23.73
2018-02-27T03:06:41.361Z,23.48
2018-02-27T03:09:10.709Z,24.90
2018-02-27T03:11:39.850Z,19.90
2018-02-27T03:14:09.332Z,22.23
2018-02-27T03:16:37.337Z,24.33
2018-02-27T03:19:05.468Z,23.05
2018-02-27T03:21:33.608Z,22.58
2018-02-27T03:24:01.607Z,21.60
2018-02-27T03:26:29.677Z,22.10
2018-02-27T03:28:57.906Z,21.08
2018-02-27T03:31:25.892Z,22.08
2018-02-27T03:33:53.870Z,19.37
2018-02-27T03:36:21.810Z,22.62
2018-02-27T03:38:50.584Z,22.02
2018-02-27T03:41:19.534Z,22.20
2018-02-27T03:43:47.516Z,22.05
2018-02-27T03:46:15.381Z,23.10
2018-02-27T03:48:43.559Z,22.58
2018-02-27T03:51:11.597Z,22.65
2018-02-27T03:53:39.665Z,23.05
2018-02-27T03:56:08.724Z,23.67
2018-02-27T03:58:36.741Z,22.10
2018-02-27T04:01:04.947Z,22.30
2018-02-27T04:03:33.155Z,22.87
2018-02-27T04:06:01.074Z,21.48
2018-02-27T04:08:29.329Z,22.17
2018-02-27T04:10:58.138Z,22.02
2018-02-27T04:13:26.211Z,20.55
2018-02-27T04:15:55.123Z,23.05
2018-02-27T04:18:23.242Z,21.52
2018-02-27T04:20:51.834Z,22.52
2018-02-27T04:23:20.787Z,20.65
2018-02-27T04:25:49.435Z,22.87
2018-02-27T04:28:17.374Z,19.17
2018-02-27T04:30:46.546Z,22.25
2018-02-27T04:33:14.738Z,21.52
2018-02-27T04:35:42.715Z,20.20
2018-02-27T04:38:11.810Z,20.70
2018-02-27T04:40:40.980Z,22.60
2018-02-27T04:43:15.620Z,22.67
2018-02-27T04:45:44.538Z,22.55
2018-02-27T04:48:14.100Z,22.42
2018-02-27T04:50:45.729Z,20.73
2018-02-27T04:53:13.739Z,20.15
2018-02-27T04:55:45.064Z,20.70
2018-02-27T04:58:13.385Z,22.33
2018-02-27T05:00:42.501Z,23.40
2018-02-27T05:03:10.328Z,22.95
2018-02-27T05:05:39.046Z,22.35
2018-02-27T05:08:07.328Z,24.63
2018-02-27T05:10:35.370Z,24.17
2018-02-27T05:13:04.356Z,24.80
2018-02-27T05:15:32.310Z,20.45
2018-02-27T05:18:01.641Z,22.23
2018-02-27T05:20:29.714Z,20.62
2018-02-27T05:22:57.725Z,20.90
2018-02-27T05:25:25.846Z,21.00
2018-02-27T05:27:54.040Z,22.83
2018-02-27T05:30:22.358Z,21.25
2018-02-27T05:32:50.452Z,20.33
2018-02-27T05:35:18.652Z,21.17
2018-02-27T05:37:48.074Z,21.02
2018-02-27T05:40:16.032Z,20.45
2018-02-27T05:42:44.126Z,19.92
2018-02-27T05:45:12.210Z,21.48
2018-02-27T05:47:41.320Z,21.70
2018-02-27T05:50:11.401Z,20.12
2018-02-27T05:52:39.518Z,22.50
2018-02-27T05:55:07.962Z,22.35
2018-02-27T05:57:36.166Z,20.58
2018-02-27T06:00:04.439Z,18.23
2018-02-27T06:02:32.855Z,22.33
2018-02-27T06:05:00.852Z,20.92
2018-02-27T06:07:31.866Z,21.75
2018-02-27T06:10:02.682Z,21.87
2018-02-27T06:12:31.629Z,22.95
2018-02-27T06:15:00.141Z,22.13
2018-02-27T06:17:31.946Z,21.35
2018-02-27T06:20:03.201Z,21.48
2018-02-27T06:22:31.145Z,21.52
2018-02-27T06:24:59.142Z,22.42
2018-02-27T06:27:27.224Z,21.50
2018-02-27T06:29:55.470Z,21.48
2018-02-27T06:32:23.428Z,22.62
2018-02-27T06:34:52.423Z,22.70
2018-02-27T06:37:20.917Z,21.87
2018-02-27T06:39:49.022Z,18.95
2018-02-27T06:42:18.236Z,20.42
2018-02-27T06:44:46.178Z,22.25
2018-02-27T06:47:14.033Z,22.05
2018-02-27T06:49:42.153Z,22.27
2018-02-27T06:52:11.130Z,21.92
2018-02-27T06:54:39.809Z,23.48
2018-02-27T06:57:09.256Z,22.92
2018-02-27T06:59:37.077Z,24.50
2018-02-27T07:02:05.812Z,23.50
2018-02-27T07:04:34.440Z,22.15
2018-02-27T07:07:02.407Z,23.00
2018-02-27T07:09:31.561Z,22.05
2018-02-27T07:12:00.467Z,23.05
2018-02-27T07:14:28.466Z,22.27
2018-02-27T07:16:56.723Z,23.27
2018-02-27T07:19:24.673Z,21.58
2018-02-27T07:21:53.648Z,21.98
2018-02-27T07:24:22.996Z,22.30
2018-02-27T07:26:51.039Z,24.40
2018-02-27T07:29:19.113Z,23.35
2018-02-27T07:31:47.109Z,22.67
2018-02-27T07:34:15.676Z,22.15
2018-02-27T07:36:46.050Z,22.62
2018-02-27T07:39:15.224Z,21.48
2018-02-27T07:41:43.584Z,23.60
2018-02-27T07:44:12.688Z,22.15
2018-02-27T07:46:40.690Z,21.83
2018-02-27T07:49:10.603Z,21.73
2018-02-27T07:51:38.802Z,18.33
2018-02-27T07:54:07.896Z,20.70
2018-02-27T07:56:35.862Z,17.33
2018-02-27T07:59:03.915Z,17.87
2018-02-27T08:01:31.755Z,18.37
2018-02-27T08:03:59.578Z,18.87
2018-02-27T08:06:27.182Z,17.90
2018-02-27T08:08:54.873Z,17.37
2018-02-27T08:11:22.494Z,16.37
2018-02-27T08:13:50.257Z,15.77
2018-02-27T08:16:17.938Z,14.82
2018-02-27T08:18:45.526Z,14.85
2018-02-27T08:21:14.874Z,14.90
2018-02-27T08:23:42.601Z,15.80
2018-02-27T08:26:10.248Z,13.48
2018-02-27T08:28:39.155Z,14.57
2018-02-27T08:31:06.872Z,17.05
2018-02-27T08:33:34.620Z,16.10
2018-02-27T08:36:02.362Z,18.45
2018-02-27T08:38:30.081Z,17.42
2018-02-27T08:40:57.778Z,16.62
2018-02-27T08:43:26.210Z,19.90
2018-02-27T08:45:53.882Z,17.05
2018-02-27T08:48:22.263Z,21.58
2018-02-27T08:50:50.689Z,19.52
2018-02-27T08:53:18.296Z,16.58
2018-02-27T08:55:46.028Z,15.32
2018-02-27T08:58:14.411Z,16.25
2018-02-27T09:00:42.597Z,15.95
2018-02-27T09:03:10.204Z,15.30
2018-02-27T09:05:37.844Z,14.70
2018-02-27T09:08:05.479Z,15.80
2018-02-27T09:10:33.129Z,13.23
2018-02-27T09:13:00.720Z,14.10
2018-02-27T09:15:28.382Z,15.65
2018-02-27T09:17:55.971Z,16.75
2018-02-27T09:20:23.690Z,18.00
2018-02-27T09:22:51.974Z,17.48
2018-02-27T09:25:19.644Z,17.95
2018-02-27T09:27:47.302Z,16.75
2018-02-27T09:30:14.972Z,18.02
2018-02-27T09:32:42.752Z,16.48
2018-02-27T09:35:11.272Z,12.48
2018-02-27T09:37:39.727Z,18.30
2018-02-27T09:40:07.333Z,15.85
2018-02-27T09:42:37.340Z,18.70
2018-02-27T09:45:04.892Z,18.02
2018-02-27T09:47:34.059Z,17.23
2018-02-27T09:50:01.710Z,17.25
2018-02-27T09:52:30.426Z,18.87
2018-02-27T09:54:58.027Z,17.25
2018-02-27T09:57:25.661Z,14.75
2018-02-27T09:59:53.209Z,15.52
2018-02-27T10:02:21.177Z,17.33
2018-02-27T10:04:48.825Z,17.40
2018-02-27T10:07:16.417Z,18.27
2018-02-27T10:09:44.790Z,18.67
2018-02-27T10:12:13.211Z,17.45
2018-02-27T10:14:40.869Z,17.65
2018-02-27T10:17:08.553Z,16.90
2018-02-27T10:19:36.093Z,17.05
2018-02-27T10:22:03.825Z,17.67
2018-02-27T10:24:32.211Z,17.48
2018-02-27T10:26:59.887Z,16.20
2018-02-27T10:29:27.641Z,15.95
2018-02-27T10:31:55.279Z,15.32
2018-02-27T10:34:23.999Z,17.30
2018-02-27T10:36:51.609Z,16.73
2018-02-27T10:39:19.178Z,17.80
2018-02-27T10:41:46.842Z,16.25
2018-02-27T10:44:15.693Z,15.75
2018-02-27T10:46:43.335Z,14.77
2018-02-27T10:49:10.915Z,15.50
2018-02-27T10:51:39.759Z,15.43
2018-02-27T10:54:07.387Z,15.38
2018-02-27T10:56:36.377Z,15.48
2018-02-27T10:59:04.125Z,16.42
2018-02-27T11:01:31.795Z,14.90
2018-02-27T11:03:59.453Z,15.27
2018-02-27T11:06:27.031Z,16.05
2018-02-27T11:08:54.639Z,14.93
2018-02-27T11:11:23.089Z,15.30
2018-02-27T11:13:50.699Z,15.73
2018-02-27T11:16:18.253Z,15.55
2018-02-27T11:18:45.869Z,14.25
2018-02-27T11:21:13.431Z,16.10
2018-02-27T11:23:42.739Z,15.65
2018-02-27T11:26:10.681Z,15.85
2018-02-27T11:28:38.376Z,16.33
2018-02-27T11:31:06.921Z,16.00
2018-02-27T11:33:34.706Z,15.50
2018-02-27T11:36:02.289Z,13.23
2018-02-27T11:38:30.752Z,15.57
2018-02-27T11:40:58.292Z,15.43
2018-02-27T11:43:26.029Z,16.85
2018-02-27T11:45:53.599Z,15.82
2018-02-27T11:48:21.359Z,15.48
2018-02-27T11:50:49.762Z,16.62
2018-02-27T11:53:17.340Z,18.20
2018-02-27T11:55:45.161Z,17.70
2018-02-27T11:58:12.794Z,15.80
2018-02-27T12:00:41.303Z,17.58
2018-02-27T12:03:08.881Z,18.33
2018-02-27T12:05:36.489Z,16.90
2018-02-27T12:08:04.063Z,18.10
2018-02-27T12:10:31.756Z,15.98
2018-02-27T12:12:59.358Z,17.10
2018-02-27T12:15:26.985Z,17.87
2018-02-27T12:17:54.558Z,19.02
2018-02-27T12:20:22.089Z,16.35
2018-02-27T12:22:49.725Z,14.85
2018-02-27T12:25:17.280Z,17.73
2018-02-27T12:27:44.998Z,18.95
2018-02-27T12:30:12.674Z,16.02
2018-02-27T12:32:40.320Z,17.92
2018-02-27T12:35:07.864Z,19.20
2018-02-27T12:37:36.633Z,18.00
2018-02-27T12:40:04.633Z,18.65
2018-02-27T12:42:32.181Z,17.42
2018-02-27T12:44:59.823Z,17.75
2018-02-27T12:47:27.430Z,19.12
2018-02-27T12:49:55.029Z,19.85
2018-02-27T12:52:22.639Z,20.12
2018-02-27T12:54:51.331Z,19.85
2018-02-27T12:57:19.769Z,17.50
2018-02-27T12:59:47.421Z,19.65
2018-02-27T13:02:15.036Z,19.87
2018-02-27T13:04:42.646Z,18.75
2018-02-27T13:07:10.260Z,19.12
2018-02-27T13:09:37.941Z,18.02
2018-02-27T13:12:06.328Z,20.80
2018-02-27T13:14:34.082Z,18.45
2018-02-27T13:17:03.644Z,20.17
2018-02-27T13:19:31.979Z,18.23
2018-02-27T13:21:59.581Z,19.23
2018-02-27T13:24:27.186Z,20.40
2018-02-27T13:26:54.743Z,19.00
2018-02-27T13:29:22.379Z,18.85
2018-02-27T13:31:49.935Z,18.17
2018-02-27T13:34:17.521Z,20.73
2018-02-27T13:36:45.082Z,20.52
2018-02-27T13:39:13.045Z,20.37
2018-02-27T13:41:40.673Z,19.77
2018-02-27T13:44:08.281Z,18.95
2018-02-27T13:46:36.702Z,18.65
2018-02-27T13:49:04.370Z,18.37
2018-02-27T13:51:31.884Z,20.45
2018-02-27T13:53:59.504Z,19.90
2018-02-27T13:56:27.098Z,20.42
2018-02-27T13:58:54.681Z,19.62
2018-02-27T14:01:22.808Z,19.83
2018-02-27T14:03:50.428Z,19.77
2018-02-27T14:06:17.982Z,20.83
2018-02-27T14:08:45.617Z,19.85
2018-02-27T14:11:14.113Z,19.42
2018-02-27T14:13:43.022Z,17.50
2018-02-27T14:16:10.633Z,19.35
2018-02-27T14:18:39.385Z,18.10
2018-02-27T14:21:07.031Z,20.88
2018-02-27T14:23:34.589Z,19.92
2018-02-27T14:26:02.157Z,20.00
2018-02-27T14:28:30.959Z,20.45
2018-02-27T14:30:58.522Z,20.10
2018-02-27T14:33:26.099Z,19.10
2018-02-27T14:35:53.666Z,19.12
2018-02-27T14:38:21.283Z,18.70
2018-02-27T14:40:48.908Z,17.83
2018-02-27T14:43:16.518Z,18.98
2018-02-27T14:45:44.059Z,19.17
2018-02-27T14:48:11.701Z,19.35
2018-02-27T14:50:39.267Z,19.52
2018-02-27T14:53:06.867Z,20.33
2018-02-27T14:55:34.546Z,20.52
2018-02-27T14:58:02.922Z,21.75
2018-02-27T15:00:30.446Z,21.62
2018-02-27T15:02:58.088Z,20.65
2018-02-27T15:05:25.639Z,20.60
2018-02-27T15:07:54.018Z,21.62
2018-02-27T15:10:21.580Z,20.85
2018-02-27T15:12:49.955Z,20.42
2018-02-27T15:15:17.557Z,20.88
2018-02-27T15:17:45.941Z,23.10
2018-02-27T15:20:14.635Z,23.87
2018-02-27T15:22:42.219Z,22.48
2018-02-27T15:25:09.812Z,23.40
2018-02-27T15:27:37.446Z,21.12
2018-02-27T15:30:04.958Z,21.90
2018-02-27T15:32:33.301Z,22.08
2018-02-27T15:35:01.668Z,21.08
2018-02-27T15:37:30.046Z,23.40
2018-02-27T15:39:57.587Z,21.73
2018-02-27T15:42:25.198Z,22.48
2018-02-27T15:44:52.729Z,22.13
2018-02-27T15:47:21.230Z,22.73
2018-02-27T15:49:48.876Z,23.80
2018-02-27T15:52:16.449Z,22.95
2018-02-27T15:54:44.044Z,23.62
2018-02-27T15:57:12.453Z,22.45
2018-02-27T15:59:39.989Z,22.62
2018-02-27T16:02:07.616Z,23.73
2018-02-27T16:04:36.351Z,24.02
2018-02-27T16:07:03.928Z,23.62
2018-02-27T16:09:32.234Z,24.12
2018-02-27T16:11:59.917Z,23.33
2018-02-27T16:14:27.529Z,23.05
2018-02-27T16:16:55.145Z,24.58
2018-02-27T16:19:22.741Z,24.92
2018-02-27T16:21:50.338Z,23.73
2018-02-27T16:24:17.929Z,24.37
2018-02-27T16:26:45.509Z,22.90
2018-02-27T16:29:13.116Z,25.15
2018-02-27T16:31:41.591Z,22.02
2018-02-27T16:34:10.201Z,24.17
2018-02-27T16:36:37.871Z,24.33
2018-02-27T16:39:05.466Z,24.40
2018-02-27T16:41:33.087Z,24.37
2018-02-27T16:44:00.726Z,24.77
2018-02-27T16:46:28.301Z,23.60
2018-02-27T16:48:55.859Z,24.25
2018-02-27T16:51:23.516Z,23.75
2018-02-27T16:53:51.077Z,25.90
2018-02-27T16:56:18.687Z,24.58
2018-02-27T16:58:46.262Z,25.15
2018-02-27T17:01:13.887Z,25.85
2018-02-27T17:03:41.451Z,23.98
2018-02-27T17:06:09.046Z,24.25
2018-02-27T17:08:38.211Z,22.48
2018-02-27T17:11:05.851Z,23.87
2018-02-27T17:13:33.377Z,21.92
2018-02-27T17:16:00.991Z,18.37
2018-02-27T17:18:28.533Z,17.05
2018-02-27T17:20:56.111Z,16.75
2018-02-27T17:23:23.732Z,17.02
2018-02-27T17:25:52.097Z,16.67
2018-02-27T17:28:19.701Z,17.10
2018-02-27T17:30:47.285Z,18.00
2018-02-27T17:33:14.847Z,17.58
2018-02-27T17:35:42.449Z,19.25
2018-02-27T17:38:10.034Z,17.95
2018-02-27T17:40:37.633Z,18.98
2018-02-27T17:43:05.198Z,19.80
2018-02-27T17:45:32.795Z,19.55
2018-02-27T17:48:00.364Z,18.35
2018-02-27T17:50:27.958Z,20.02
2018-02-27T17:52:55.494Z,21.02
2018-02-27T17:55:23.078Z,18.87
2018-02-27T17:57:50.655Z,19.27
2018-02-27T18:00:18.249Z,19.90
2018-02-27T18:02:46.579Z,20.52
2018-02-27T18:05:14.214Z,20.37
2018-02-27T18:07:41.786Z,19.27
2018-02-27T18:10:11.677Z,20.30
2018-02-27T18:12:39.268Z,19.25
2018-02-27T18:15:06.860Z,18.37
2018-02-27T18:17:34.455Z,19.02
2018-02-27T18:20:02.342Z,20.05
2018-02-27T18:22:29.924Z,19.52
2018-02-27T18:24:57.526Z,19.65
2018-02-27T18:27:25.127Z,20.58
2018-02-27T18:29:52.713Z,19.75
2018-02-27T18:32:20.317Z,20.27
2018-02-27T18:34:47.891Z,20.65
2018-02-27T18:37:16.283Z,19.87
2018-02-27T18:39:43.903Z,19.50
2018-02-27T18:42:12.239Z,19.23
2018-02-27T18:44:41.025Z,20.85
2018-02-27T18:47:08.573Z,19.60
2018-02-27T18:49:36.184Z,21.12
2018-02-27T18:52:05.343Z,20.90
2018-02-27T18:54:32.930Z,22.55
2018-02-27T18:57:00.510Z,20.58
2018-02-27T18:59:28.853Z,19.98
2018-02-27T19:01:56.498Z,19.40
2018-02-27T19:04:24.053Z,21.02
2018-02-27T19:06:51.652Z,22.02
2018-02-27T19:09:20.031Z,20.45
2018-02-27T19:11:47.737Z,20.70
2018-02-27T19:14:16.480Z,21.15
2018-02-27T19:16:44.124Z,18.70
2018-02-27T19:19:11.755Z,21.75
2018-02-27T19:21:39.417Z,18.90
2018-02-27T19:24:07.100Z,18.15
2018-02-27T19:26:35.329Z,19.10
2018-02-27T19:29:05.541Z,17.48
2018-02-27T19:31:33.966Z,17.83
2018-02-27T19:34:01.988Z,18.87
2018-02-27T19:36:29.556Z,19.12
2018-02-27T19:38:58.108Z,18.23
2018-02-27T19:41:25.781Z,18.87
2018-02-27T19:43:53.509Z,19.40
2018-02-27T19:46:21.266Z,18.92
2018-02-27T19:48:48.909Z,19.48
2018-02-27T19:51:17.684Z,19.58
2018-02-27T19:53:45.561Z,19.52
2018-02-27T19:56:15.212Z,20.02
2018-02-27T19:58:44.398Z,19.77
2018-02-27T20:01:12.966Z,22.95
2018-02-27T20:03:40.809Z,20.73
2018-02-27T20:06:08.391Z,20.17
2018-02-27T20:08:36.266Z,17.60
2018-02-27T20:11:03.952Z,18.40
2018-02-27T20:13:32.519Z,17.67
2018-02-27T20:16:00.277Z,17.70
2018-02-27T20:18:28.097Z,18.65
2018-02-27T20:20:55.742Z,17.70
2018-02-27T20:23:29.938Z,18.92
2018-02-27T20:25:58.199Z,18.52
2018-02-27T20:28:32.503Z,17.17
2018-02-27T20:31:00.157Z,17.62
2018-02-27T20:33:27.947Z,19.12
2018-02-27T20:35:55.574Z,17.20
2018-02-27T20:38:29.433Z,19.20
2018-02-27T20:40:57.001Z,18.65
2018-02-27T20:43:24.643Z,19.10
2018-02-27T20:45:52.351Z,17.95
2018-02-27T20:48:20.078Z,18.45
2018-02-27T20:50:48.894Z,18.73
2018-02-27T20:53:17.271Z,20.40
2018-02-27T20:55:45.968Z,19.02
2018-02-27T20:58:14.565Z,19.08
2018-02-27T21:00:42.255Z,18.23
2018-02-27T21:03:09.831Z,18.60
2018-02-27T21:05:37.753Z,19.10
2018-02-27T21:08:05.409Z,20.67
2018-02-27T21:10:33.551Z,20.10
2018-02-27T21:13:01.486Z,17.52
2018-02-27T21:15:30.417Z,19.65
2018-02-27T21:18:00.244Z,18.10
2018-02-27T21:20:29.109Z,19.37
2018-02-27T21:22:56.686Z,18.73
2018-02-27T21:25:26.054Z,19.75
2018-02-27T21:27:54.116Z,21.15
2018-02-27T21:30:21.879Z,19.50
2018-02-27T21:32:49.643Z,19.75
2018-02-27T21:35:18.579Z,18.87
2018-02-27T21:37:47.607Z,19.35
2018-02-27T21:40:15.501Z,20.88
2018-02-27T21:42:43.211Z,20.35
2018-02-27T21:45:10.847Z,20.73
2018-02-27T21:47:39.238Z,20.77
2018-02-27T21:50:06.899Z,22.25
2018-02-27T21:52:34.756Z,20.95
2018-02-27T21:55:02.437Z,20.67
2018-02-27T21:57:31.530Z,20.08
2018-02-27T22:00:00.752Z,20.73
2018-02-27T22:02:28.406Z,21.80
2018-02-27T22:04:56.865Z,20.90
2018-02-27T22:07:24.492Z,19.05
2018-02-27T22:09:53.489Z,19.35
2018-02-27T22:12:22.057Z,19.48
2018-02-27T22:14:49.636Z,22.08
2018-02-27T22:17:18.217Z,19.67
2018-02-27T22:19:46.647Z,21.62
2018-02-27T22:22:15.216Z,20.08
2018-02-27T22:24:44.831Z,21.67
2018-02-27T22:27:12.573Z,19.20
2018-02-27T22:29:42.207Z,19.40
2018-02-27T22:32:09.837Z,17.98
2018-02-27T22:34:37.557Z,18.12
2018-02-27T22:37:05.371Z,18.35
2018-02-27T22:39:33.002Z,18.25
2018-02-27T22:42:00.842Z,17.65
2018-02-27T22:44:28.468Z,17.70
2018-02-27T22:46:56.122Z,18.23
2018-02-27T22:49:23.847Z,18.20
2018-02-27T22:51:51.692Z,18.67
2018-02-27T22:54:20.053Z,17.70
2018-02-27T22:56:47.763Z,17.17
2018-02-27T22:59:15.548Z,18.05
2018-02-27T23:01:43.271Z,19.02
2018-02-27T23:04:11.115Z,16.98
2018-02-27T23:06:38.876Z,17.37
2018-02-27T23:09:06.549Z,18.17
2018-02-27T23:11:34.328Z,19.95
2018-02-27T23:14:03.177Z,17.62
2018-02-27T23:16:31.747Z,18.33
2018-02-27T23:18:59.523Z,16.62
2018-02-27T23:21:28.147Z,19.08
2018-02-27T23:23:58.941Z,19.12
2018-02-27T23:26:33.039Z,18.87
2018-02-27T23:29:03.208Z,17.77
2018-02-27T23:31:34.014Z,17.92
2018-02-27T23:34:09.270Z,17.20
2018-02-27T23:36:38.380Z,17.48
2018-02-27T23:39:07.670Z,18.70
2018-02-27T23:41:35.252Z,17.05
2018-02-27T23:44:02.870Z,17.52
2018-02-27T23:46:31.311Z,17.02
2018-02-27T23:48:58.967Z,16.42
2018-02-27T23:51:26.525Z,16.77
2018-02-27T23:53:54.470Z,16.27
2018-02-27T23:56:22.036Z,16.55
2018-02-27T23:58:49.857Z,17.98
